sensor_id;sensor_type;location;lat;lon;timestamp;pressure;altitude;pressure_sealevel;temperature;humidity
50292;BME280;36190;54.980;73.388;2023-04-12T00:00:24;100854.56;;;-0.58;59.88
50292;BME280;36190;54.980;73.388;2023-04-12T00:02:51;100858.22;;;-0.61;60.05
50292;BME280;36190;54.980;73.388;2023-04-12T00:05:21;100859.31;;;-0.65;60.28
50292;BME280;36190;54.980;73.388;2023-04-12T00:07:52;100856.94;;;-0.70;60.32
50292;BME280;36190;54.980;73.388;2023-04-12T00:10:20;100858.13;;;-0.75;60.46
50292;BME280;36190;54.980;73.388;2023-04-12T00:12:48;100863.69;;;-0.81;60.74
50292;BME280;36190;54.980;73.388;2023-04-12T00:15:15;100862.19;;;-0.86;60.78
50292;BME280;36190;54.980;73.388;2023-04-12T00:17:43;100848.47;;;-0.91;61.04
50292;BME280;36190;54.980;73.388;2023-04-12T00:20:12;100855.38;;;-0.90;61.04
50292;BME280;36190;54.980;73.388;2023-04-12T00:22:42;100860.81;;;-0.93;61.35
50292;BME280;36190;54.980;73.388;2023-04-12T00:25:10;100858.94;;;-0.91;61.45
50292;BME280;36190;54.980;73.388;2023-04-12T00:27:37;100854.47;;;-0.89;61.79
50292;BME280;36190;54.980;73.388;2023-04-12T00:30:06;100855.22;;;-0.87;61.71
50292;BME280;36190;54.980;73.388;2023-04-12T00:32:34;100854.75;;;-0.77;61.70
50292;BME280;36190;54.980;73.388;2023-04-12T00:35:01;100849.94;;;-0.69;61.56
50292;BME280;36190;54.980;73.388;2023-04-12T00:37:29;100846.94;;;-0.63;61.48
50292;BME280;36190;54.980;73.388;2023-04-12T00:39:58;100843.06;;;-0.56;61.61
50292;BME280;36190;54.980;73.388;2023-04-12T00:42:25;100853.22;;;-0.49;61.47
50292;BME280;36190;54.980;73.388;2023-04-12T00:44:53;100849.31;;;-0.42;61.39
50292;BME280;36190;54.980;73.388;2023-04-12T00:47:21;100862.66;;;-0.31;61.50
50292;BME280;36190;54.980;73.388;2023-04-12T00:49:49;100863.88;;;-0.20;61.42
50292;BME280;36190;54.980;73.388;2023-04-12T00:52:16;100866.63;;;-0.07;61.30
50292;BME280;36190;54.980;73.388;2023-04-12T00:54:43;100871.09;;;0.07;61.06
50292;BME280;36190;54.980;73.388;2023-04-12T00:57:13;100865.38;;;0.15;60.94
50292;BME280;36190;54.980;73.388;2023-04-12T00:59:40;100871.13;;;0.21;60.82
50292;BME280;36190;54.980;73.388;2023-04-12T01:02:08;100870.94;;;0.24;60.67
50292;BME280;36190;54.980;73.388;2023-04-12T01:04:35;100874.16;;;0.30;60.44
50292;BME280;36190;54.980;73.388;2023-04-12T01:07:09;100879.22;;;0.33;60.58
50292;BME280;36190;54.980;73.388;2023-04-12T01:09:48;100884.28;;;0.36;60.71
50292;BME280;36190;54.980;73.388;2023-04-12T01:12:27;100879.16;;;0.34;60.72
50292;BME280;36190;54.980;73.388;2023-04-12T01:15:04;100881.50;;;0.39;60.50
50292;BME280;36190;54.980;73.388;2023-04-12T01:17:38;100879.44;;;0.44;60.52
50292;BME280;36190;54.980;73.388;2023-04-12T01:20:13;100875.97;;;0.44;60.37
50292;BME280;36190;54.980;73.388;2023-04-12T01:26:10;100887.34;;;0.59;60.51
50292;BME280;36190;54.980;73.388;2023-04-12T01:28:42;100878.34;;;0.63;60.08
50292;BME280;36190;54.980;73.388;2023-04-12T01:31:12;100872.34;;;0.61;59.78
50292;BME280;36190;54.980;73.388;2023-04-12T01:33:42;100888.13;;;0.75;59.69
50292;BME280;36190;54.980;73.388;2023-04-12T01:36:14;100885.69;;;0.87;59.53
50292;BME280;36190;54.980;73.388;2023-04-12T01:38:43;100888.50;;;0.98;59.14
50292;BME280;36190;54.980;73.388;2023-04-12T01:41:11;100886.34;;;1.05;59.17
50292;BME280;36190;54.980;73.388;2023-04-12T01:43:43;100894.50;;;1.15;58.92
50292;BME280;36190;54.980;73.388;2023-04-12T01:46:13;100892.47;;;1.20;58.64
50292;BME280;36190;54.980;73.388;2023-04-12T01:48:47;100889.53;;;1.25;58.29
50292;BME280;36190;54.980;73.388;2023-04-12T01:51:19;100885.78;;;1.29;58.16
50292;BME280;36190;54.980;73.388;2023-04-12T01:53:56;100886.25;;;1.35;57.92
50292;BME280;36190;54.980;73.388;2023-04-12T01:56:30;100893.63;;;1.43;57.65
50292;BME280;36190;54.980;73.388;2023-04-12T01:59:00;100894.22;;;1.48;57.59
50292;BME280;36190;54.980;73.388;2023-04-12T02:01:29;100891.81;;;1.58;57.31
50292;BME280;36190;54.980;73.388;2023-04-12T02:03:57;100891.16;;;1.69;57.06
50292;BME280;36190;54.980;73.388;2023-04-12T02:06:25;100887.09;;;1.78;56.84
50292;BME280;36190;54.980;73.388;2023-04-12T02:08:57;100882.34;;;1.83;56.61
50292;BME280;36190;54.980;73.388;2023-04-12T02:11:25;100870.91;;;1.84;56.51
50292;BME280;36190;54.980;73.388;2023-04-12T02:13:52;100874.06;;;1.89;56.29
50292;BME280;36190;54.980;73.388;2023-04-12T02:16:21;100876.41;;;1.94;56.14
50292;BME280;36190;54.980;73.388;2023-04-12T02:18:49;100872.50;;;2.00;55.96
50292;BME280;36190;54.980;73.388;2023-04-12T02:21:17;100877.94;;;2.11;55.73
50292;BME280;36190;54.980;73.388;2023-04-12T02:23:44;100876.47;;;2.20;55.45
50292;BME280;36190;54.980;73.388;2023-04-12T02:26:12;100867.22;;;2.27;55.20
50292;BME280;36190;54.980;73.388;2023-04-12T02:28:39;100877.78;;;2.40;54.96
50292;BME280;36190;54.980;73.388;2023-04-12T02:31:06;100865.69;;;2.51;54.54
50292;BME280;36190;54.980;73.388;2023-04-12T02:33:35;100878.88;;;2.64;54.23
50292;BME280;36190;54.980;73.388;2023-04-12T02:36:04;100870.75;;;2.80;53.96
50292;BME280;36190;54.980;73.388;2023-04-12T02:38:34;100873.50;;;2.91;53.70
50292;BME280;36190;54.980;73.388;2023-04-12T02:41:02;100859.78;;;2.99;53.34
50292;BME280;36190;54.980;73.388;2023-04-12T02:43:29;100869.16;;;3.03;53.17
50292;BME280;36190;54.980;73.388;2023-04-12T02:45:58;100872.22;;;3.10;52.98
50292;BME280;36190;54.980;73.388;2023-04-12T02:48:25;100870.09;;;3.15;52.82
50292;BME280;36190;54.980;73.388;2023-04-12T02:50:54;100866.38;;;3.17;52.49
50292;BME280;36190;54.980;73.388;2023-04-12T02:53:21;100861.72;;;3.21;52.31
50292;BME280;36190;54.980;73.388;2023-04-12T02:55:49;100868.25;;;3.28;52.10
50292;BME280;36190;54.980;73.388;2023-04-12T02:58:16;100855.38;;;3.37;52.04
50292;BME280;36190;54.980;73.388;2023-04-12T03:00:44;100859.03;;;3.47;51.98
50292;BME280;36190;54.980;73.388;2023-04-12T03:03:14;100862.47;;;3.61;51.46
50292;BME280;36190;54.980;73.388;2023-04-12T03:05:42;100863.53;;;3.58;51.01
50292;BME280;36190;54.980;73.388;2023-04-12T03:08:13;100873.47;;;3.54;50.88
50292;BME280;36190;54.980;73.388;2023-04-12T03:10:40;100868.19;;;3.54;50.75
50292;BME280;36190;54.980;73.388;2023-04-12T03:13:08;100849.50;;;3.57;50.69
50292;BME280;36190;54.980;73.388;2023-04-12T03:15:36;100855.91;;;3.66;50.51
50292;BME280;36190;54.980;73.388;2023-04-12T03:18:03;100856.81;;;3.78;50.24
50292;BME280;36190;54.980;73.388;2023-04-12T03:20:31;100850.13;;;3.85;49.82
50292;BME280;36190;54.980;73.388;2023-04-12T03:22:58;100858.66;;;3.89;49.55
50292;BME280;36190;54.980;73.388;2023-04-12T03:25:27;100848.47;;;3.96;49.20
50292;BME280;36190;54.980;73.388;2023-04-12T03:27:55;100857.63;;;4.03;49.00
50292;BME280;36190;54.980;73.388;2023-04-12T03:30:22;100848.31;;;4.10;48.74
50292;BME280;36190;54.980;73.388;2023-04-12T03:32:49;100834.75;;;4.15;48.40
50292;BME280;36190;54.980;73.388;2023-04-12T03:35:17;100849.44;;;4.31;48.33
50292;BME280;36190;54.980;73.388;2023-04-12T03:37:44;100845.63;;;4.46;47.75
50292;BME280;36190;54.980;73.388;2023-04-12T03:40:12;100835.56;;;4.51;47.49
50292;BME280;36190;54.980;73.388;2023-04-12T03:42:41;100828.25;;;4.66;47.00
50292;BME280;36190;54.980;73.388;2023-04-12T03:45:09;100832.94;;;4.86;46.85
50292;BME280;36190;54.980;73.388;2023-04-12T03:47:37;100836.94;;;5.03;46.55
50292;BME280;36190;54.980;73.388;2023-04-12T03:50:06;100832.94;;;5.08;46.05
50292;BME280;36190;54.980;73.388;2023-04-12T03:52:35;100834.53;;;5.11;46.15
50292;BME280;36190;54.980;73.388;2023-04-12T03:55:02;100829.72;;;5.05;46.02
50292;BME280;36190;54.980;73.388;2023-04-12T03:57:30;100823.69;;;5.03;45.94
50292;BME280;36190;54.980;73.388;2023-04-12T03:59:59;100828.25;;;5.01;45.82
50292;BME280;36190;54.980;73.388;2023-04-12T04:02:27;100831.63;;;5.03;45.79
50292;BME280;36190;54.980;73.388;2023-04-12T04:04:54;100818.66;;;5.11;45.67
50292;BME280;36190;54.980;73.388;2023-04-12T04:07:22;100809.47;;;5.27;45.38
50292;BME280;36190;54.980;73.388;2023-04-12T04:09:49;100817.13;;;5.41;45.10
50292;BME280;36190;54.980;73.388;2023-04-12T04:12:17;100819.03;;;5.50;44.76
50292;BME280;36190;54.980;73.388;2023-04-12T04:14:44;100810.00;;;5.53;44.65
50292;BME280;36190;54.980;73.388;2023-04-12T04:17:13;100815.88;;;5.57;44.49
50292;BME280;36190;54.980;73.388;2023-04-12T04:19:41;100814.31;;;5.66;44.48
50292;BME280;36190;54.980;73.388;2023-04-12T04:22:08;100806.97;;;5.69;43.85
50292;BME280;36190;54.980;73.388;2023-04-12T04:24:37;100815.03;;;5.68;43.80
50292;BME280;36190;54.980;73.388;2023-04-12T04:27:04;100843.16;;;5.69;43.83
50292;BME280;36190;54.980;73.388;2023-04-12T04:29:32;100834.72;;;5.75;44.02
50292;BME280;36190;54.980;73.388;2023-04-12T04:32:01;100822.78;;;5.81;43.76
50292;BME280;36190;54.980;73.388;2023-04-12T04:34:30;100810.22;;;5.94;43.68
50292;BME280;36190;54.980;73.388;2023-04-12T04:36:58;100806.91;;;6.13;43.69
50292;BME280;36190;54.980;73.388;2023-04-12T04:39:25;100818.66;;;6.42;43.27
50292;BME280;36190;54.980;73.388;2023-04-12T04:41:53;100825.28;;;6.57;42.23
50292;BME280;36190;54.980;73.388;2023-04-12T04:44:20;100819.41;;;6.54;41.82
50292;BME280;36190;54.980;73.388;2023-04-12T04:46:48;100816.84;;;6.42;41.91
50292;BME280;36190;54.980;73.388;2023-04-12T04:49:16;100829.50;;;6.39;42.13
50292;BME280;36190;54.980;73.388;2023-04-12T04:51:45;100837.22;;;6.42;42.03
50292;BME280;36190;54.980;73.388;2023-04-12T04:54:12;100838.94;;;6.53;41.85
50292;BME280;36190;54.980;73.388;2023-04-12T04:56:41;100835.13;;;6.67;41.72
50292;BME280;36190;54.980;73.388;2023-04-12T04:59:08;100827.66;;;6.82;41.61
50292;BME280;36190;54.980;73.388;2023-04-12T05:01:36;100820.44;;;6.94;41.41
50292;BME280;36190;54.980;73.388;2023-04-12T05:04:03;100837.81;;;7.08;41.35
50292;BME280;36190;54.980;73.388;2023-04-12T05:06:31;100821.59;;;7.11;41.39
50292;BME280;36190;54.980;73.388;2023-04-12T05:09:00;100817.31;;;7.20;41.33
50292;BME280;36190;54.980;73.388;2023-04-12T05:11:30;100826.53;;;7.15;40.93
50292;BME280;36190;54.980;73.388;2023-04-12T05:13:57;100813.81;;;7.09;41.30
50292;BME280;36190;54.980;73.388;2023-04-12T05:16:25;100832.22;;;7.01;41.18
50292;BME280;36190;54.980;73.388;2023-04-12T05:18:52;100826.31;;;6.97;41.06
50292;BME280;36190;54.980;73.388;2023-04-12T05:21:20;100810.69;;;7.04;40.99
50292;BME280;36190;54.980;73.388;2023-04-12T05:23:47;100801.09;;;7.13;40.99
50292;BME280;36190;54.980;73.388;2023-04-12T05:26:16;100827.56;;;7.34;40.68
50292;BME280;36190;54.980;73.388;2023-04-12T05:28:43;100814.00;;;7.37;40.50
50292;BME280;36190;54.980;73.388;2023-04-12T05:31:11;100809.00;;;7.44;40.73
50292;BME280;36190;54.980;73.388;2023-04-12T05:33:38;100804.81;;;7.61;40.69
50292;BME280;36190;54.980;73.388;2023-04-12T05:36:06;100802.97;;;7.71;40.50
50292;BME280;36190;54.980;73.388;2023-04-12T05:38:33;100799.38;;;7.73;40.33
50292;BME280;36190;54.980;73.388;2023-04-12T05:41:01;100791.13;;;7.76;40.21
50292;BME280;36190;54.980;73.388;2023-04-12T05:43:31;100819.22;;;7.68;40.12
50292;BME280;36190;54.980;73.388;2023-04-12T05:45:59;100807.34;;;7.63;40.28
50292;BME280;36190;54.980;73.388;2023-04-12T05:48:26;100792.66;;;7.49;40.08
50292;BME280;36190;54.980;73.388;2023-04-12T05:50:54;100783.13;;;7.46;40.35
50292;BME280;36190;54.980;73.388;2023-04-12T05:53:21;100781.31;;;7.47;40.24
50292;BME280;36190;54.980;73.388;2023-04-12T05:55:49;100772.78;;;7.43;40.19
50292;BME280;36190;54.980;73.388;2023-04-12T05:58:19;100790.94;;;7.48;40.18
50292;BME280;36190;54.980;73.388;2023-04-12T06:00:47;100789.69;;;7.42;39.48
50292;BME280;36190;54.980;73.388;2023-04-12T06:03:16;100784.78;;;7.37;39.31
50292;BME280;36190;54.980;73.388;2023-04-12T06:05:43;100776.41;;;7.32;39.32
50292;BME280;36190;54.980;73.388;2023-04-12T06:08:11;100776.41;;;7.32;39.75
50292;BME280;36190;54.980;73.388;2023-04-12T06:10:39;100781.31;;;7.47;39.71
50292;BME280;36190;54.980;73.388;2023-04-12T06:13:07;100778.13;;;7.63;39.09
50292;BME280;36190;54.980;73.388;2023-04-12T06:15:34;100809.56;;;7.67;38.42
50292;BME280;36190;54.980;73.388;2023-04-12T06:18:05;100797.69;;;7.71;38.26
50292;BME280;36190;54.980;73.388;2023-04-12T06:20:33;100786.22;;;7.71;37.49
50292;BME280;36190;54.980;73.388;2023-04-12T06:23:00;100792.78;;;7.77;37.50
50292;BME280;36190;54.980;73.388;2023-04-12T06:25:28;100787.91;;;7.82;36.73
50292;BME280;36190;54.980;73.388;2023-04-12T06:27:56;100760.50;;;7.81;36.71
50292;BME280;36190;54.980;73.388;2023-04-12T06:30:23;100779.09;;;7.81;36.65
50292;BME280;36190;54.980;73.388;2023-04-12T06:32:51;100776.84;;;7.77;36.56
50292;BME280;36190;54.980;73.388;2023-04-12T06:35:20;100773.94;;;7.70;37.05
50292;BME280;36190;54.980;73.388;2023-04-12T06:37:47;100769.59;;;7.69;37.20
50292;BME280;36190;54.980;73.388;2023-04-12T06:40:15;100761.59;;;7.79;37.32
50292;BME280;36190;54.980;73.388;2023-04-12T06:42:42;100794.34;;;7.89;36.88
50292;BME280;36190;54.980;73.388;2023-04-12T06:45:10;100821.72;;;7.90;37.01
50292;BME280;36190;54.980;73.388;2023-04-12T06:47:39;100789.28;;;7.86;37.11
50292;BME280;36190;54.980;73.388;2023-04-12T06:50:07;100804.69;;;7.92;37.25
50292;BME280;36190;54.980;73.388;2023-04-12T06:52:36;100810.69;;;7.94;37.29
50292;BME280;36190;54.980;73.388;2023-04-12T06:55:05;100788.44;;;7.95;37.69
50292;BME280;36190;54.980;73.388;2023-04-12T06:57:33;100768.59;;;8.09;37.88
50292;BME280;36190;54.980;73.388;2023-04-12T07:00:00;100798.22;;;8.24;37.70
50292;BME280;36190;54.980;73.388;2023-04-12T07:02:28;100785.44;;;8.38;37.68
50292;BME280;36190;54.980;73.388;2023-04-12T07:04:56;100776.84;;;8.64;37.40
50292;BME280;36190;54.980;73.388;2023-04-12T07:07:23;100777.00;;;8.90;37.36
50292;BME280;36190;54.980;73.388;2023-04-12T07:09:52;100772.94;;;9.14;37.17
50292;BME280;36190;54.980;73.388;2023-04-12T07:12:20;100776.94;;;9.28;37.11
50292;BME280;36190;54.980;73.388;2023-04-12T07:14:48;100771.06;;;9.43;36.94
50292;BME280;36190;54.980;73.388;2023-04-12T07:17:15;100780.16;;;9.32;37.03
50292;BME280;36190;54.980;73.388;2023-04-12T07:19:43;100764.59;;;9.09;37.57
50292;BME280;36190;54.980;73.388;2023-04-12T07:22:10;100765.22;;;8.93;37.87
50292;BME280;36190;54.980;73.388;2023-04-12T07:24:38;100770.06;;;8.79;37.91
50292;BME280;36190;54.980;73.388;2023-04-12T07:27:07;100760.34;;;8.50;38.49
50292;BME280;36190;54.980;73.388;2023-04-12T07:29:35;100776.06;;;8.34;38.46
50292;BME280;36190;54.980;73.388;2023-04-12T07:32:03;100753.69;;;8.26;38.56
50292;BME280;36190;54.980;73.388;2023-04-12T07:34:31;100745.28;;;8.31;38.61
50292;BME280;36190;54.980;73.388;2023-04-12T07:36:59;100748.34;;;8.46;38.68
50292;BME280;36190;54.980;73.388;2023-04-12T07:39:26;100739.28;;;8.77;38.43
50292;BME280;36190;54.980;73.388;2023-04-12T07:41:56;100740.63;;;9.09;38.08
50292;BME280;36190;54.980;73.388;2023-04-12T07:44:25;100734.34;;;9.28;37.42
50292;BME280;36190;54.980;73.388;2023-04-12T07:46:52;100737.59;;;9.22;37.15
50292;BME280;36190;54.980;73.388;2023-04-12T07:49:20;100738.38;;;9.32;36.64
50292;BME280;36190;54.980;73.388;2023-04-12T07:51:47;100769.88;;;9.37;36.32
50292;BME280;36190;54.980;73.388;2023-04-12T07:54:15;100743.84;;;9.49;36.29
50292;BME280;36190;54.980;73.388;2023-04-12T07:56:56;100721.84;;;9.65;35.90
50292;BME280;36190;54.980;73.388;2023-04-12T07:59:26;100707.00;;;9.62;35.99
50292;BME280;36190;54.980;73.388;2023-04-12T08:01:53;100707.31;;;9.59;35.85
50292;BME280;36190;54.980;73.388;2023-04-12T08:04:21;100722.47;;;9.59;36.08
50292;BME280;36190;54.980;73.388;2023-04-12T08:06:48;100710.72;;;9.70;36.36
50292;BME280;36190;54.980;73.388;2023-04-12T08:09:15;100700.91;;;9.97;36.24
50292;BME280;36190;54.980;73.388;2023-04-12T08:11:43;100679.22;;;10.18;36.04
50292;BME280;36190;54.980;73.388;2023-04-12T08:14:12;100698.88;;;10.43;35.87
50292;BME280;36190;54.980;73.388;2023-04-12T08:16:41;100700.63;;;10.61;35.50
50292;BME280;36190;54.980;73.388;2023-04-12T08:19:09;100682.00;;;10.78;35.54
50292;BME280;36190;54.980;73.388;2023-04-12T08:21:36;100719.72;;;10.91;35.67
50292;BME280;36190;54.980;73.388;2023-04-12T08:24:04;100693.69;;;10.85;35.86
50292;BME280;36190;54.980;73.388;2023-04-12T08:26:32;100671.97;;;10.80;36.19
50292;BME280;36190;54.980;73.388;2023-04-12T08:28:59;100695.03;;;10.97;35.95
50292;BME280;36190;54.980;73.388;2023-04-12T08:31:27;100684.09;;;11.17;35.96
50292;BME280;36190;54.980;73.388;2023-04-12T08:33:56;100689.09;;;11.37;36.09
50292;BME280;36190;54.980;73.388;2023-04-12T08:36:24;100659.38;;;11.65;36.30
50292;BME280;36190;54.980;73.388;2023-04-12T08:38:52;100677.34;;;11.96;35.72
50292;BME280;36190;54.980;73.388;2023-04-12T08:41:21;100670.69;;;12.08;35.58
50292;BME280;36190;54.980;73.388;2023-04-12T08:43:48;100674.50;;;12.14;35.71
50292;BME280;36190;54.980;73.388;2023-04-12T08:46:17;100670.28;;;12.28;35.70
50292;BME280;36190;54.980;73.388;2023-04-12T08:48:45;100660.84;;;12.49;35.77
50292;BME280;36190;54.980;73.388;2023-04-12T08:51:16;100665.75;;;12.69;35.69
50292;BME280;36190;54.980;73.388;2023-04-12T08:53:44;100650.94;;;12.89;35.45
50292;BME280;36190;54.980;73.388;2023-04-12T08:56:12;100639.38;;;13.12;35.23
50292;BME280;36190;54.980;73.388;2023-04-12T08:58:42;100629.53;;;13.51;34.81
50292;BME280;36190;54.980;73.388;2023-04-12T09:01:11;100649.66;;;13.85;34.39
50292;BME280;36190;54.980;73.388;2023-04-12T09:03:41;100631.25;;;13.97;33.90
50292;BME280;36190;54.980;73.388;2023-04-12T09:06:09;100624.09;;;13.89;33.57
50292;BME280;36190;54.980;73.388;2023-04-12T09:08:50;100640.66;;;13.63;32.02
50292;BME280;36190;54.980;73.388;2023-04-12T09:11:22;100624.34;;;13.50;31.96
50292;BME280;36190;54.980;73.388;2023-04-12T09:13:49;100620.97;;;13.32;31.16
50292;BME280;36190;54.980;73.388;2023-04-12T09:16:17;100607.09;;;13.05;31.10
50292;BME280;36190;54.980;73.388;2023-04-12T09:18:59;100609.03;;;12.97;31.01
50292;BME280;36190;54.980;73.388;2023-04-12T09:21:27;100604.69;;;12.96;31.14
50292;BME280;36190;54.980;73.388;2023-04-12T09:24:04;100629.19;;;12.84;31.35
50292;BME280;36190;54.980;73.388;2023-04-12T09:26:34;100595.44;;;12.75;31.52
50292;BME280;36190;54.980;73.388;2023-04-12T09:29:02;100599.38;;;12.87;31.23
50292;BME280;36190;54.980;73.388;2023-04-12T09:31:30;100581.50;;;13.03;31.44
50292;BME280;36190;54.980;73.388;2023-04-12T09:34:05;100564.03;;;13.30;31.46
50292;BME280;36190;54.980;73.388;2023-04-12T09:36:37;100586.09;;;13.71;31.30
50292;BME280;36190;54.980;73.388;2023-04-12T09:39:07;100598.78;;;13.92;31.23
50292;BME280;36190;54.980;73.388;2023-04-12T09:41:35;100591.56;;;13.93;31.31
50292;BME280;36190;54.980;73.388;2023-04-12T09:44:02;100580.66;;;13.94;31.41
50292;BME280;36190;54.980;73.388;2023-04-12T09:46:30;100588.53;;;14.11;31.49
50292;BME280;36190;54.980;73.388;2023-04-12T09:48:59;100551.72;;;14.26;31.30
50292;BME280;36190;54.980;73.388;2023-04-12T09:51:29;100554.41;;;14.26;31.29
50292;BME280;36190;54.980;73.388;2023-04-12T09:53:59;100552.19;;;14.30;31.35
50292;BME280;36190;54.980;73.388;2023-04-12T09:56:30;100560.34;;;14.37;30.99
50292;BME280;36190;54.980;73.388;2023-04-12T09:59:00;100551.53;;;14.43;30.81
50292;BME280;36190;54.980;73.388;2023-04-12T10:01:28;100540.09;;;14.56;30.51
50292;BME280;36190;54.980;73.388;2023-04-12T10:03:59;100561.00;;;14.61;30.15
50292;BME280;36190;54.980;73.388;2023-04-12T10:06:26;100552.56;;;14.64;30.36
50292;BME280;36190;54.980;73.388;2023-04-12T10:08:55;100512.53;;;14.47;30.43
50292;BME280;36190;54.980;73.388;2023-04-12T10:11:23;100523.06;;;14.70;30.11
50292;BME280;36190;54.980;73.388;2023-04-12T10:13:53;100526.09;;;14.61;29.74
50292;BME280;36190;54.980;73.388;2023-04-12T10:16:22;100530.03;;;14.65;30.09
50292;BME280;36190;54.980;73.388;2023-04-12T10:18:53;100522.50;;;14.97;29.82
50292;BME280;36190;54.980;73.388;2023-04-12T10:21:21;100548.28;;;15.13;29.43
50292;BME280;36190;54.980;73.388;2023-04-12T10:23:49;100542.16;;;14.97;29.56
50292;BME280;36190;54.980;73.388;2023-04-12T10:26:17;100522.25;;;14.92;29.86
50292;BME280;36190;54.980;73.388;2023-04-12T10:28:45;100518.44;;;15.01;30.00
50292;BME280;36190;54.980;73.388;2023-04-12T10:31:34;100522.22;;;15.13;29.76
50292;BME280;36190;54.980;73.388;2023-04-12T10:34:02;100514.88;;;15.29;29.45
50292;BME280;36190;54.980;73.388;2023-04-12T10:36:54;100500.53;;;15.50;29.04
50292;BME280;36190;54.980;73.388;2023-04-12T10:39:43;100515.88;;;15.57;28.89
50292;BME280;36190;54.980;73.388;2023-04-12T10:42:19;100497.53;;;15.32;28.96
50292;BME280;36190;54.980;73.388;2023-04-12T10:44:48;100499.06;;;15.12;29.07
50292;BME280;36190;54.980;73.388;2023-04-12T10:47:56;100510.16;;;15.31;29.50
50292;BME280;36190;54.980;73.388;2023-04-12T10:50:29;100489.47;;;15.32;29.60
50292;BME280;36190;54.980;73.388;2023-04-12T10:53:24;100509.91;;;15.26;29.62
50292;BME280;36190;54.980;73.388;2023-04-12T10:55:52;100489.50;;;15.03;29.82
50292;BME280;36190;54.980;73.388;2023-04-12T10:58:53;100495.28;;;15.00;30.23
50292;BME280;36190;54.980;73.388;2023-04-12T11:01:21;100487.97;;;14.72;30.71
50292;BME280;36190;54.980;73.388;2023-04-12T11:04:10;100468.06;;;14.60;31.22
50292;BME280;36190;54.980;73.388;2023-04-12T11:06:46;100488.63;;;14.52;31.50
50292;BME280;36190;54.980;73.388;2023-04-12T11:09:21;100503.00;;;14.66;31.42
50292;BME280;36190;54.980;73.388;2023-04-12T11:11:50;100481.88;;;14.78;31.52
50292;BME280;36190;54.980;73.388;2023-04-12T11:14:25;100470.69;;;15.03;31.63
50292;BME280;36190;54.980;73.388;2023-04-12T11:17:21;100475.28;;;15.45;31.32
50292;BME280;36190;54.980;73.388;2023-04-12T11:19:55;100445.28;;;15.41;31.36
50292;BME280;36190;54.980;73.388;2023-04-12T11:22:25;100455.13;;;15.27;31.58
50292;BME280;36190;54.980;73.388;2023-04-12T11:24:55;100466.91;;;15.26;31.87
50292;BME280;36190;54.980;73.388;2023-04-12T11:27:23;100442.19;;;15.44;31.96
50292;BME280;36190;54.980;73.388;2023-04-12T11:29:52;100451.63;;;15.75;31.61
50292;BME280;36190;54.980;73.388;2023-04-12T11:32:21;100462.19;;;15.77;31.28
50292;BME280;36190;54.980;73.388;2023-04-12T11:34:50;100450.03;;;15.39;31.42
50292;BME280;36190;54.980;73.388;2023-04-12T11:37:20;100431.22;;;14.75;31.73
50292;BME280;36190;54.980;73.388;2023-04-12T11:39:51;100406.31;;;14.16;32.87
50292;BME280;36190;54.980;73.388;2023-04-12T11:42:20;100424.97;;;14.02;33.37
50292;BME280;36190;54.980;73.388;2023-04-12T11:44:48;100421.88;;;13.84;33.77
50292;BME280;36190;54.980;73.388;2023-04-12T11:47:17;100405.66;;;13.70;34.15
50292;BME280;36190;54.980;73.388;2023-04-12T11:49:46;100406.00;;;13.67;34.53
50292;BME280;36190;54.980;73.388;2023-04-12T11:52:17;100406.91;;;13.74;34.71
50292;BME280;36190;54.980;73.388;2023-04-12T11:54:45;100401.44;;;13.83;34.74
50292;BME280;36190;54.980;73.388;2023-04-12T11:57:14;100400.63;;;14.04;34.61
50292;BME280;36190;54.980;73.388;2023-04-12T11:59:43;100400.72;;;14.11;34.73
50292;BME280;36190;54.980;73.388;2023-04-12T12:02:12;100399.09;;;14.16;34.92
50292;BME280;36190;54.980;73.388;2023-04-12T12:04:40;100392.66;;;14.11;34.90
50292;BME280;36190;54.980;73.388;2023-04-12T12:07:10;100411.53;;;13.81;35.52
50292;BME280;36190;54.980;73.388;2023-04-12T12:09:40;100409.06;;;13.34;36.18
50292;BME280;36190;54.980;73.388;2023-04-12T12:12:10;100386.09;;;12.95;36.81
50292;BME280;36190;54.980;73.388;2023-04-12T12:14:37;100376.78;;;12.75;37.16
50292;BME280;36190;54.980;73.388;2023-04-12T12:17:10;100387.09;;;12.78;37.15
50292;BME280;36190;54.980;73.388;2023-04-12T12:19:38;100359.59;;;12.85;37.23
50292;BME280;36190;54.980;73.388;2023-04-12T12:22:10;100389.41;;;13.12;36.80
50292;BME280;36190;54.980;73.388;2023-04-12T12:24:44;100379.06;;;13.24;36.44
50292;BME280;36190;54.980;73.388;2023-04-12T12:27:11;100372.41;;;13.19;36.35
50292;BME280;36190;54.980;73.388;2023-04-12T12:29:39;100358.09;;;13.27;36.21
50292;BME280;36190;54.980;73.388;2023-04-12T12:32:11;100388.66;;;13.63;35.86
50292;BME280;36190;54.980;73.388;2023-04-12T12:34:40;100364.88;;;13.75;35.48
50292;BME280;36190;54.980;73.388;2023-04-12T12:37:11;100362.34;;;13.73;35.54
50292;BME280;36190;54.980;73.388;2023-04-12T12:39:59;100353.97;;;13.61;35.71
50292;BME280;36190;54.980;73.388;2023-04-12T12:42:28;100378.69;;;13.27;36.13
50292;BME280;36190;54.980;73.388;2023-04-12T12:44:56;100353.59;;;12.98;36.70
50292;BME280;36190;54.980;73.388;2023-04-12T12:47:23;100344.34;;;12.70;37.26
50292;BME280;36190;54.980;73.388;2023-04-12T12:49:51;100350.03;;;12.52;37.65
50292;BME280;36190;54.980;73.388;2023-04-12T12:52:18;100331.47;;;12.35;37.94
50292;BME280;36190;54.980;73.388;2023-04-12T12:54:48;100333.41;;;12.27;38.23
50292;BME280;36190;54.980;73.388;2023-04-12T12:57:15;100337.13;;;12.17;38.47
50292;BME280;36190;54.980;73.388;2023-04-12T12:59:42;100328.19;;;12.10;38.82